createdAt,value
2024-01-05T00:00:12.704Z,60.90
2024-01-05T00:02:40.265Z,60.72
2024-01-05T00:05:08.597Z,61.26
2024-01-05T00:07:37.448Z,60.65
2024-01-05T00:10:05.614Z,60.63
2024-01-05T00:12:33.171Z,60.82
2024-01-05T00:15:00.857Z,60.96
2024-01-05T00:17:28.472Z,60.88
2024-01-05T00:19:56.370Z,60.51
2024-01-05T00:22:23.910Z,60.07
2024-01-05T00:24:52.839Z,60.04
2024-01-05T00:27:20.360Z,60.67
2024-01-05T00:29:47.935Z,61.10
2024-01-05T00:32:18.575Z,60.66
2024-01-05T00:34:46.722Z,59.94
2024-01-05T00:37:14.395Z,59.41
2024-01-05T00:39:42.222Z,59.88
2024-01-05T00:42:11.243Z,59.92
2024-01-05T00:44:38.787Z,59.04
2024-01-05T00:47:07.002Z,59.32
2024-01-05T00:49:34.700Z,58.49
2024-01-05T00:52:02.508Z,60.17
2024-01-05T00:54:30.268Z,59.84
2024-01-05T00:56:57.964Z,60.24
2024-01-05T00:59:27.093Z,60.23
2024-01-05T01:01:54.792Z,59.21
2024-01-05T01:04:22.658Z,59.78
2024-01-05T01:06:50.674Z,59.65
2024-01-05T01:09:18.561Z,59.29
2024-01-05T01:11:46.090Z,58.97
2024-01-05T01:14:13.582Z,59.28
2024-01-05T01:16:42.685Z,58.61
2024-01-05T01:19:10.440Z,60.61
2024-01-05T01:21:38.180Z,59.46
2024-01-05T01:24:06.095Z,59.42
2024-01-05T01:26:33.654Z,59.34
2024-01-05T01:29:01.211Z,58.62
2024-01-05T01:31:29.901Z,58.13
2024-01-05T01:33:58.984Z,59.70
2024-01-05T01:36:26.819Z,58.61
2024-01-05T01:38:54.378Z,58.56
2024-01-05T01:41:22.015Z,58.03
2024-01-05T01:43:53.101Z,58.88
2024-01-05T01:46:21.768Z,58.25
2024-01-05T01:48:49.607Z,58.91
2024-01-05T01:51:18.924Z,59.46
2024-01-05T01:53:46.986Z,59.16
2024-01-05T01:56:15.040Z,59.42
2024-01-05T01:58:44.598Z,58.89
2024-01-05T02:01:13.486Z,60.44
2024-01-05T02:03:41.627Z,60.59
2024-01-05T02:06:09.347Z,59.84
2024-01-05T02:08:39.124Z,59.10
2024-01-05T02:11:06.919Z,58.33
2024-01-05T02:13:35.652Z,58.11
2024-01-05T02:16:03.331Z,58.23
2024-01-05T02:18:30.928Z,58.58
2024-01-05T02:21:01.509Z,58.01
2024-01-05T02:23:32.035Z,57.33
2024-01-05T02:26:01.599Z,57.15
2024-01-05T02:28:29.215Z,57.03
2024-01-05T02:30:57.108Z,56.78
2024-01-05T02:33:25.490Z,56.59
2024-01-05T02:35:53.345Z,56.29
2024-01-05T02:38:20.940Z,56.60
2024-01-05T02:40:49.828Z,56.40
2024-01-05T02:43:17.451Z,55.97
2024-01-05T02:45:45.339Z,57.71
2024-01-05T02:48:13.083Z,57.65
2024-01-05T02:50:40.727Z,57.50
2024-01-05T02:53:08.438Z,57.59
2024-01-05T02:55:35.959Z,57.08
2024-01-05T02:58:05.702Z,56.54
2024-01-05T03:00:33.558Z,56.51
2024-01-05T03:03:01.368Z,56.27
2024-01-05T03:05:32.611Z,56.37
2024-01-05T03:08:00.675Z,56.08
2024-01-05T03:10:28.271Z,56.39
2024-01-05T03:12:55.942Z,58.11
2024-01-05T03:15:24.839Z,57.52
2024-01-05T03:17:53.712Z,56.78
2024-01-05T03:20:22.152Z,56.26
2024-01-05T03:22:49.683Z,56.49
2024-01-05T03:25:17.185Z,56.53
2024-01-05T03:27:44.724Z,56.47
2024-01-05T03:30:12.918Z,57.06
2024-01-05T03:32:41.897Z,56.99
2024-01-05T03:35:09.827Z,57.31
2024-01-05T03:37:37.627Z,56.78
2024-01-05T03:40:06.066Z,56.90
2024-01-05T03:42:33.677Z,56.76
2024-01-05T03:45:01.440Z,56.71
2024-01-05T03:47:32.030Z,56.55
2024-01-05T03:50:01.347Z,56.99
2024-01-05T03:52:29.251Z,57.15
2024-01-05T03:54:57.188Z,56.91
2024-01-05T03:57:24.861Z,56.28
2024-01-05T03:59:52.540Z,56.42
2024-01-05T04:02:20.133Z,56.38
2024-01-05T04:04:47.843Z,56.22
2024-01-05T04:07:17.151Z,58.70
2024-01-05T04:09:44.682Z,57.41
2024-01-05T04:12:12.512Z,60.77
2024-01-05T04:14:40.236Z,63.35
2024-01-05T04:17:07.785Z,60.63
2024-01-05T04:19:35.353Z,58.76
2024-01-05T04:22:05.224Z,61.34
2024-01-05T04:24:34.345Z,62.20
2024-01-05T04:27:02.172Z,63.44
2024-01-05T04:29:29.823Z,63.52
2024-01-05T04:31:57.332Z,64.10
2024-01-05T04:34:24.978Z,65.17
2024-01-05T04:36:52.525Z,62.44
2024-01-05T04:39:20.384Z,66.50
2024-01-05T04:41:49.638Z,62.26
2024-01-05T04:44:17.153Z,62.29
2024-01-05T04:46:44.913Z,63.21
2024-01-05T04:49:12.674Z,60.11
2024-01-05T04:51:43.182Z,62.48
2024-01-05T04:54:11.962Z,59.96
2024-01-05T04:56:39.481Z,57.89
2024-01-05T04:59:09.647Z,56.51
2024-01-05T05:01:37.574Z,56.75
2024-01-05T05:04:05.404Z,56.94
2024-01-05T05:06:33.088Z,58.65
2024-01-05T05:09:00.722Z,58.32
2024-01-05T05:11:28.226Z,57.34
2024-01-05T05:13:55.737Z,56.27
2024-01-05T05:16:24.708Z,55.36
2024-01-05T05:18:52.320Z,57.03
2024-01-05T05:21:20.278Z,56.70
2024-01-05T05:23:47.792Z,55.82
2024-01-05T05:26:15.682Z,55.58
2024-01-05T05:28:43.405Z,54.91
2024-01-05T05:31:11.476Z,54.97
2024-01-05T05:33:42.248Z,54.45
2024-01-05T05:36:10.021Z,53.91
2024-01-05T05:38:37.488Z,54.01
2024-01-05T05:41:05.387Z,53.29
2024-01-05T05:43:33.038Z,52.92
2024-01-05T05:46:00.474Z,53.03
2024-01-05T05:48:28.153Z,53.76
2024-01-05T05:50:57.058Z,53.38
2024-01-05T05:53:24.782Z,53.47
2024-01-05T05:55:52.281Z,53.27
2024-01-05T05:58:19.812Z,52.96
2024-01-05T06:00:47.442Z,53.92
2024-01-05T06:03:15.337Z,54.17
2024-01-05T06:05:43.021Z,54.19
2024-01-05T06:08:12.000Z,53.84
2024-01-05T06:10:39.848Z,53.51
2024-01-05T06:13:07.474Z,53.72
2024-01-05T06:15:35.057Z,54.35
2024-01-05T06:18:02.804Z,55.22
2024-01-05T06:20:30.422Z,55.11
2024-01-05T06:22:57.972Z,54.35
2024-01-05T06:25:26.895Z,54.22
2024-01-05T06:27:54.435Z,54.10
2024-01-05T06:30:22.055Z,53.71
2024-01-05T06:32:49.660Z,54.04
2024-01-05T06:35:17.297Z,53.64
2024-01-05T06:37:44.803Z,54.81
2024-01-05T06:40:13.288Z,55.02
2024-01-05T06:42:42.213Z,54.26
2024-01-05T06:45:10.115Z,53.99
2024-01-05T06:47:37.695Z,54.28
2024-01-05T06:50:06.113Z,53.96
2024-01-05T06:52:33.889Z,53.88
2024-01-05T06:55:01.705Z,53.64
2024-01-05T06:57:30.509Z,53.37
2024-01-05T06:59:59.832Z,52.94
2024-01-05T07:02:27.399Z,53.83
2024-01-05T07:04:55.007Z,53.32
2024-01-05T07:07:22.604Z,53.46
2024-01-05T07:09:50.248Z,53.41
2024-01-05T07:12:17.808Z,52.96
2024-01-05T07:14:45.438Z,52.70
2024-01-05T07:17:14.391Z,52.35
2024-01-05T07:19:42.656Z,52.93
2024-01-05T07:22:10.579Z,54.11
2024-01-05T07:24:39.428Z,53.90
2024-01-05T07:27:07.340Z,54.25
2024-01-05T07:29:34.990Z,53.93
2024-01-05T07:32:02.633Z,53.42
2024-01-05T07:34:31.640Z,53.30
2024-01-05T07:36:59.159Z,53.64
2024-01-05T07:39:26.748Z,55.65
2024-01-05T07:41:54.395Z,54.26
2024-01-05T07:44:21.957Z,54.66
2024-01-05T07:46:49.496Z,58.08
2024-01-05T07:49:17.235Z,56.77
2024-01-05T07:51:46.369Z,56.36
2024-01-05T07:54:14.245Z,55.75
2024-01-05T07:56:41.788Z,59.39
2024-01-05T07:59:09.327Z,59.53
2024-01-05T08:01:37.107Z,59.01
2024-01-05T08:04:04.847Z,62.29
2024-01-05T08:06:32.755Z,61.26
2024-01-05T08:09:01.873Z,61.96
2024-01-05T08:11:29.426Z,61.20
2024-01-05T08:13:56.905Z,62.75
2024-01-05T08:16:26.574Z,62.14
2024-01-05T08:18:54.231Z,61.49
2024-01-05T08:21:21.832Z,60.00
2024-01-05T08:23:49.342Z,61.92
2024-01-05T08:26:20.212Z,62.02
2024-01-05T08:28:48.668Z,61.74
2024-01-05T08:31:16.373Z,59.62
2024-01-05T08:33:44.632Z,60.93
2024-01-05T08:36:12.869Z,62.87
2024-01-05T08:38:40.534Z,61.69
2024-01-05T08:41:08.148Z,60.89
2024-01-05T08:43:39.053Z,61.79
2024-01-05T08:46:06.756Z,60.98
2024-01-05T08:48:34.457Z,59.29
2024-01-05T08:51:02.085Z,57.66
2024-01-05T08:53:29.617Z,56.47
2024-01-05T08:55:57.156Z,59.63
2024-01-05T08:58:24.818Z,60.82
2024-01-05T09:00:53.815Z,59.93
2024-01-05T09:03:21.590Z,59.70
2024-01-05T09:05:49.197Z,57.96
2024-01-05T09:08:16.677Z,59.41
2024-01-05T09:10:44.339Z,58.61
2024-01-05T09:13:12.041Z,59.10
2024-01-05T09:15:39.649Z,58.69
2024-01-05T09:18:09.615Z,58.89
2024-01-05T09:20:38.683Z,56.72
2024-01-05T09:23:07.526Z,58.62
2024-01-05T09:25:38.634Z,59.33
2024-01-05T09:28:08.140Z,58.46
2024-01-05T09:30:35.837Z,57.24
2024-01-05T09:33:05.037Z,54.08
2024-01-05T09:35:34.136Z,55.06
2024-01-05T09:38:01.708Z,54.05
2024-01-05T09:40:29.412Z,53.38
2024-01-05T09:42:58.802Z,53.76
2024-01-05T09:45:26.717Z,54.27
2024-01-05T09:47:58.479Z,56.01
2024-01-05T09:50:26.392Z,56.47
2024-01-05T09:52:55.520Z,56.80
2024-01-05T09:55:23.089Z,58.18
2024-01-05T09:57:52.624Z,56.11
2024-01-05T10:00:21.322Z,56.05
2024-01-05T10:02:57.607Z,57.66
2024-01-05T10:05:34.313Z,55.64
2024-01-05T10:08:05.391Z,54.55
2024-01-05T10:10:46.348Z,52.48
2024-01-05T10:13:14.963Z,53.89
2024-01-05T10:15:54.272Z,53.74
2024-01-05T10:18:25.432Z,55.01
2024-01-05T10:20:53.880Z,54.59
2024-01-05T10:23:23.188Z,53.72
2024-01-05T10:25:52.577Z,52.41
2024-01-05T10:28:26.356Z,50.76
2024-01-05T10:30:54.664Z,49.43
2024-01-05T10:33:23.132Z,47.04
2024-01-05T10:35:50.737Z,50.94
2024-01-05T10:38:18.782Z,48.24
2024-01-05T10:40:47.801Z,47.72
2024-01-05T10:43:17.339Z,47.56
2024-01-05T10:45:48.954Z,47.00
2024-01-05T10:48:18.260Z,48.85
2024-01-05T10:50:46.416Z,50.13
2024-01-05T10:53:14.309Z,50.63
2024-01-05T10:55:43.365Z,52.32
2024-01-05T10:58:13.130Z,51.15
2024-01-05T11:00:41.079Z,52.52
2024-01-05T11:03:12.401Z,52.34
2024-01-05T11:05:43.371Z,52.71
2024-01-05T11:08:25.785Z,50.08
2024-01-05T11:11:08.717Z,52.40
2024-01-05T11:13:53.908Z,54.74
2024-01-05T11:16:55.590Z,56.14
2024-01-05T11:19:46.548Z,56.26
2024-01-05T11:22:18.836Z,54.76
2024-01-05T11:24:46.782Z,55.79
2024-01-05T11:27:34.168Z,55.88
2024-01-05T11:30:04.100Z,55.85
2024-01-05T11:32:43.550Z,56.44
2024-01-05T11:35:43.620Z,53.84
2024-01-05T11:38:26.445Z,54.17
2024-01-05T11:40:54.124Z,53.59
2024-01-05T11:43:36.532Z,55.13
2024-01-05T11:46:06.042Z,56.85
2024-01-05T11:48:52.308Z,55.99
2024-01-05T11:51:20.756Z,54.45
2024-01-05T11:53:51.543Z,55.11
2024-01-05T11:56:22.518Z,53.86
2024-01-05T11:58:50.344Z,54.63
2024-01-05T12:01:20.826Z,53.45
2024-01-05T12:03:48.649Z,56.08
2024-01-05T12:06:16.338Z,56.40
2024-01-05T12:08:44.050Z,56.38
2024-01-05T12:11:13.497Z,56.77
2024-01-05T12:13:41.432Z,57.78
2024-01-05T12:16:11.100Z,56.65
2024-01-05T12:18:49.630Z,55.95
2024-01-05T12:21:20.912Z,56.47
2024-01-05T12:23:54.386Z,55.07
2024-01-05T12:26:22.195Z,56.03
2024-01-05T12:28:50.514Z,57.90
2024-01-05T12:31:19.480Z,58.24
2024-01-05T12:33:49.137Z,56.64
2024-01-05T12:36:25.574Z,57.81
2024-01-05T12:38:53.655Z,57.64
2024-01-05T12:41:22.459Z,55.85
2024-01-05T12:43:52.573Z,56.01
2024-01-05T12:46:20.932Z,56.80
2024-01-05T12:48:50.074Z,55.61
2024-01-05T12:51:21.675Z,54.72
2024-01-05T12:53:59.228Z,55.24
2024-01-05T12:56:26.894Z,55.28
2024-01-05T12:58:54.954Z,53.91
2024-01-05T13:01:24.204Z,51.51
2024-01-05T13:03:55.322Z,53.29
2024-01-05T13:06:24.788Z,53.90
2024-01-05T13:08:52.687Z,53.96
2024-01-05T13:11:21.943Z,54.29
2024-01-05T13:13:53.941Z,54.99
2024-01-05T13:16:22.161Z,54.42
2024-01-05T13:18:50.128Z,53.43
2024-01-05T13:21:19.167Z,53.64
2024-01-05T13:23:48.001Z,53.87
2024-01-05T13:26:15.711Z,53.22
2024-01-05T13:28:44.880Z,53.93
2024-01-05T13:31:12.497Z,53.54
2024-01-05T13:33:41.601Z,53.42
2024-01-05T13:36:09.796Z,52.13
2024-01-05T13:38:38.695Z,51.04
2024-01-05T13:41:07.151Z,51.35
2024-01-05T13:43:35.767Z,54.15
2024-01-05T13:46:05.326Z,53.01
2024-01-05T13:48:33.039Z,51.90
2024-01-05T13:51:00.664Z,52.66
2024-01-05T13:53:28.655Z,53.27
2024-01-05T13:55:58.437Z,53.90
2024-01-05T13:58:26.343Z,52.80
2024-01-05T14:00:54.674Z,52.21
2024-01-05T14:03:25.057Z,51.20
2024-01-05T14:05:52.742Z,51.05
2024-01-05T14:08:23.305Z,52.81
2024-01-05T14:10:51.570Z,51.49
2024-01-05T14:13:20.396Z,52.07
2024-01-05T14:15:48.025Z,51.14
2024-01-05T14:18:15.723Z,52.13
2024-01-05T14:20:43.372Z,52.55
2024-01-05T14:23:10.817Z,51.57
2024-01-05T14:25:38.796Z,52.43
2024-01-05T14:28:06.883Z,52.12
2024-01-05T14:30:35.796Z,53.77
2024-01-05T14:33:03.580Z,51.44
2024-01-05T14:35:31.172Z,52.66
2024-01-05T14:37:57.762Z,50.86
2024-01-05T14:40:25.343Z,51.26
2024-01-05T14:42:52.809Z,52.25
2024-01-05T14:45:20.545Z,51.49
2024-01-05T14:47:49.488Z,52.33
2024-01-05T14:50:17.516Z,50.74
2024-01-05T14:52:52.409Z,52.59
2024-01-05T14:55:27.268Z,53.27
2024-01-05T14:57:54.820Z,54.12
2024-01-05T15:00:22.701Z,52.59
2024-01-05T15:02:51.983Z,52.23
2024-01-05T15:05:19.495Z,52.58
2024-01-05T15:07:47.162Z,53.94
2024-01-05T15:10:14.959Z,54.30
2024-01-05T15:12:42.567Z,54.20
2024-01-05T15:15:10.790Z,54.05
2024-01-05T15:17:39.451Z,54.28
2024-01-05T15:20:11.135Z,55.29
2024-01-05T15:22:38.772Z,54.38
2024-01-05T15:25:06.923Z,54.55
2024-01-05T15:27:35.023Z,54.17
2024-01-05T15:30:02.660Z,54.23
2024-01-05T15:32:30.573Z,53.79
2024-01-05T15:34:58.285Z,53.56
2024-01-05T15:37:27.433Z,55.00
2024-01-05T15:39:55.338Z,55.42
2024-01-05T15:42:23.237Z,54.17
2024-01-05T15:44:50.858Z,55.80
2024-01-05T15:47:20.477Z,53.76
2024-01-05T15:49:48.741Z,55.45
2024-01-05T15:52:16.304Z,54.35
2024-01-05T15:54:45.208Z,54.52
2024-01-05T15:57:16.553Z,53.07
2024-01-05T15:59:44.159Z,52.97
2024-01-05T16:02:11.711Z,54.45
2024-01-05T16:04:39.259Z,53.79
2024-01-05T16:07:06.954Z,56.38
2024-01-05T16:09:34.550Z,56.40
2024-01-05T16:12:05.434Z,55.74
2024-01-05T16:14:32.950Z,56.66
2024-01-05T16:17:00.522Z,55.50
2024-01-05T16:19:28.131Z,57.48
2024-01-05T16:21:56.128Z,57.28
2024-01-05T16:24:23.699Z,57.46
2024-01-05T16:26:51.926Z,56.93
2024-01-05T16:29:20.780Z,56.57
2024-01-05T16:31:48.281Z,57.11
2024-01-05T16:34:15.981Z,56.59
2024-01-05T16:36:43.670Z,57.97
2024-01-05T16:39:12.405Z,57.34
2024-01-05T16:41:40.606Z,58.66
2024-01-05T16:44:08.388Z,56.53
2024-01-05T16:46:37.226Z,55.98
2024-01-05T16:49:05.180Z,54.05
2024-01-05T16:51:32.908Z,54.11
2024-01-05T16:54:00.490Z,54.39
2024-01-05T16:56:29.964Z,53.82
2024-01-05T16:58:58.209Z,56.30
2024-01-05T17:01:25.848Z,54.97
2024-01-05T17:03:56.021Z,56.10
2024-01-05T17:06:23.871Z,56.12
2024-01-05T17:08:51.571Z,56.99
2024-01-05T17:11:19.075Z,60.96
2024-01-05T17:13:46.616Z,59.73
2024-01-05T17:16:14.168Z,61.04
2024-01-05T17:18:42.113Z,62.23
2024-01-05T17:21:11.113Z,58.86
2024-01-05T17:23:38.838Z,57.77
2024-01-05T17:26:06.489Z,59.99
2024-01-05T17:28:34.018Z,59.17
2024-01-05T17:31:01.597Z,59.40
2024-01-05T17:33:29.253Z,59.59
2024-01-05T17:35:57.901Z,57.51
2024-01-05T17:38:26.872Z,57.84
2024-01-05T17:40:54.362Z,57.41
2024-01-05T17:43:22.378Z,57.33
2024-01-05T17:45:50.036Z,58.84
2024-01-05T17:48:17.859Z,59.27
2024-01-05T17:50:47.930Z,58.15
2024-01-05T17:53:15.533Z,59.67
2024-01-05T17:55:44.468Z,60.01
2024-01-05T17:58:12.091Z,61.67
2024-01-05T18:00:39.672Z,60.45
2024-01-05T18:03:07.530Z,59.47
2024-01-05T18:05:35.192Z,61.98
2024-01-05T18:08:02.755Z,61.36
2024-01-05T18:10:32.697Z,57.69
2024-01-05T18:13:01.540Z,59.94
2024-01-05T18:15:29.147Z,60.36
2024-01-05T18:17:57.436Z,59.55
2024-01-05T18:20:24.983Z,59.64
2024-01-05T18:22:52.494Z,60.01
2024-01-05T18:25:20.022Z,61.99
2024-01-05T18:27:48.907Z,61.12
2024-01-05T18:30:18.474Z,60.22
2024-01-05T18:32:46.205Z,59.84
2024-01-05T18:35:14.194Z,60.17
2024-01-05T18:37:42.299Z,62.70
2024-01-05T18:40:10.114Z,61.88
2024-01-05T18:42:37.664Z,62.31
2024-01-05T18:45:06.109Z,62.43
2024-01-05T18:47:35.038Z,61.08
2024-01-05T18:50:04.123Z,65.21
2024-01-05T18:52:31.688Z,64.98
2024-01-05T18:54:59.343Z,63.54
2024-01-05T18:57:28.318Z,63.95
2024-01-05T18:59:55.841Z,63.48
2024-01-05T19:02:23.370Z,65.35
2024-01-05T19:04:52.417Z,65.34
2024-01-05T19:07:20.485Z,63.94
2024-01-05T19:09:48.215Z,66.07
2024-01-05T19:12:15.924Z,66.20
2024-01-05T19:14:43.717Z,65.61
2024-01-05T19:17:11.487Z,66.37
2024-01-05T19:19:40.388Z,66.45
2024-01-05T19:22:09.552Z,66.53
2024-01-05T19:24:37.322Z,66.83
2024-01-05T19:27:05.284Z,66.32
2024-01-05T19:29:32.963Z,67.73
2024-01-05T19:32:00.633Z,68.22
2024-01-05T19:34:28.454Z,68.53
2024-01-05T19:36:56.108Z,69.69
2024-01-05T19:39:25.982Z,69.74
2024-01-05T19:41:54.160Z,69.26
2024-01-05T19:44:21.698Z,69.04
2024-01-05T19:46:50.298Z,70.70
2024-01-05T19:49:18.155Z,69.88
2024-01-05T19:51:47.942Z,70.66
2024-01-05T19:54:20.188Z,71.25
2024-01-05T19:56:50.033Z,70.30
2024-01-05T19:59:20.208Z,69.81
2024-01-05T20:01:48.185Z,69.67
2024-01-05T20:04:17.013Z,68.34
2024-01-05T20:06:46.191Z,67.09
2024-01-05T20:09:14.594Z,67.42
2024-01-05T20:11:42.563Z,65.62
2024-01-05T20:14:12.369Z,66.83
2024-01-05T20:16:40.359Z,66.02
2024-01-05T20:19:08.358Z,66.18
2024-01-05T20:21:36.661Z,67.05
2024-01-05T20:24:05.969Z,66.54
2024-01-05T20:26:33.727Z,67.04
2024-01-05T20:29:01.320Z,67.46
2024-01-05T20:31:31.377Z,65.43
2024-01-05T20:34:02.552Z,67.34
2024-01-05T20:36:30.406Z,66.13
2024-01-05T20:39:00.000Z,63.83
2024-01-05T20:41:28.551Z,64.80
2024-01-05T20:43:56.211Z,64.69
2024-01-05T20:46:23.824Z,64.43
2024-01-05T20:48:52.803Z,63.77
2024-01-05T20:51:21.107Z,63.53
2024-01-05T20:53:48.649Z,62.47
2024-01-05T20:56:16.203Z,61.17
2024-01-05T20:58:46.231Z,61.06
2024-01-05T21:01:14.609Z,60.92
2024-01-05T21:03:42.462Z,64.44
2024-01-05T21:06:11.399Z,65.37
2024-01-05T21:08:39.023Z,65.06
2024-01-05T21:11:07.685Z,65.59
2024-01-05T21:13:35.268Z,67.05
2024-01-05T21:16:06.974Z,65.41
2024-01-05T21:18:35.577Z,65.36
2024-01-05T21:21:05.559Z,67.22
2024-01-05T21:23:34.804Z,66.30
2024-01-05T21:26:05.216Z,66.51
2024-01-05T21:28:33.329Z,65.12
2024-01-05T21:31:05.837Z,63.53
2024-01-05T21:33:34.782Z,64.73
2024-01-05T21:36:03.705Z,66.77
2024-01-05T21:38:31.524Z,64.87
2024-01-05T21:41:00.467Z,64.82
2024-01-05T21:43:28.042Z,66.71
2024-01-05T21:45:57.234Z,68.55
2024-01-05T21:48:25.299Z,67.51
2024-01-05T21:50:52.947Z,66.00
2024-01-05T21:53:23.256Z,69.04
2024-01-05T21:55:51.487Z,69.13
2024-01-05T21:58:20.375Z,67.57
2024-01-05T22:00:48.280Z,67.51
2024-01-05T22:03:18.934Z,66.81
2024-01-05T22:05:46.679Z,67.74
2024-01-05T22:08:16.090Z,68.65
2024-01-05T22:10:47.528Z,68.67
2024-01-05T22:13:15.436Z,68.30
2024-01-05T22:15:44.329Z,68.19
2024-01-05T22:18:12.072Z,68.37
2024-01-05T22:20:41.222Z,67.37
2024-01-05T22:23:08.818Z,67.39
2024-01-05T22:25:37.201Z,68.06
2024-01-05T22:28:05.203Z,70.49
2024-01-05T22:30:33.010Z,69.64
2024-01-05T22:33:02.223Z,67.18
2024-01-05T22:35:29.786Z,68.22
2024-01-05T22:37:57.329Z,68.13
2024-01-05T22:40:26.575Z,71.08
2024-01-05T22:42:54.134Z,70.27
2024-01-05T22:45:21.787Z,71.36
2024-01-05T22:47:51.431Z,71.58
2024-01-05T22:50:20.461Z,71.19
2024-01-05T22:52:47.978Z,71.19
2024-01-05T22:55:15.549Z,70.48
2024-01-05T22:57:43.247Z,70.96
2024-01-05T23:00:11.631Z,72.03
2024-01-05T23:02:39.538Z,71.43
2024-01-05T23:05:07.343Z,71.38
2024-01-05T23:07:36.395Z,69.90
2024-01-05T23:10:04.085Z,68.11
2024-01-05T23:12:33.361Z,67.10
2024-01-05T23:15:01.385Z,66.20
2024-01-05T23:17:28.893Z,68.34
2024-01-05T23:19:57.756Z,67.66
2024-01-05T23:22:29.562Z,68.18
2024-01-05T23:24:58.479Z,70.32
2024-01-05T23:27:26.231Z,70.52
2024-01-05T23:29:53.768Z,72.65
2024-01-05T23:32:21.357Z,72.91
2024-01-05T23:34:49.029Z,73.69
2024-01-05T23:37:16.951Z,72.04
2024-01-05T23:39:44.528Z,72.64
2024-01-05T23:42:13.651Z,71.64
2024-01-05T23:44:41.232Z,73.38
2024-01-05T23:47:08.961Z,72.24
2024-01-05T23:49:36.806Z,73.17
2024-01-05T23:52:04.854Z,71.43
2024-01-05T23:54:32.522Z,70.10
2024-01-05T23:57:00.015Z,69.42
2024-01-05T23:59:28.831Z,70.58
